createdAt,value
2018-11-02T00:04:32.346Z,23.8
2018-11-02T00:14:31.562Z,23.8
2018-11-02T00:24:30.783Z,23.8
2018-11-02T00:34:29.994Z,23.8
2018-11-02T00:44:29.214Z,23.7
2018-11-02T00:54:28.430Z,23.8
2018-11-02T01:04:27.649Z,23.7
2018-11-02T01:14:26.917Z,23.7
2018-11-02T01:24:26.091Z,23.7
2018-11-02T01:34:25.308Z,23.6
2018-11-02T01:44:24.527Z,23.7
2018-11-02T01:54:23.740Z,23.6
2018-11-02T02:04:22.965Z,23.6
2018-11-02T02:14:22.186Z,23.6
2018-11-02T02:24:21.398Z,23.6
2018-11-02T02:34:20.617Z,23.6
2018-11-02T02:44:19.834Z,23.6
2018-11-02T02:54:19.069Z,23.6
2018-11-02T03:04:18.266Z,23.5
2018-11-02T03:14:17.491Z,23.6
2018-11-02T03:24:16.707Z,23.5
2018-11-02T03:34:15.940Z,23.5
2018-11-02T03:44:15.141Z,23.5
2018-11-02T03:54:14.360Z,23.4
2018-11-02T04:04:13.573Z,23.5
2018-11-02T04:14:12.791Z,23.6
2018-11-02T04:24:12.014Z,23.5
2018-11-02T04:34:11.234Z,23.6
2018-11-02T04:44:10.445Z,23.6
2018-11-02T04:54:09.665Z,23.5
2018-11-02T05:04:08.891Z,23.6
2018-11-02T05:14:08.104Z,23.6
2018-11-02T05:24:07.321Z,23.6
2018-11-02T05:34:06.539Z,23.6
2018-11-02T05:44:05.759Z,23.5
2018-11-02T05:54:05.064Z,23.6
2018-11-02T06:04:04.190Z,23.6
2018-11-02T06:14:03.415Z,23.5
2018-11-02T06:24:02.661Z,23.5
2018-11-02T06:34:01.850Z,23.5
2018-11-02T06:44:01.063Z,23.5
2018-11-02T06:54:00.278Z,23.5
2018-11-02T07:03:59.497Z,23.5
2018-11-02T07:13:58.719Z,23.6
2018-11-02T07:23:57.938Z,23.5
2018-11-02T07:43:56.368Z,23.6
2018-11-02T07:53:55.586Z,23.6
2018-11-02T08:03:54.813Z,23.7
2018-11-02T08:13:54.024Z,23.8
2018-11-02T08:23:53.241Z,23.8
2018-11-02T08:33:52.458Z,23.9
2018-11-02T08:43:51.677Z,23.9
2018-11-02T08:53:50.897Z,23.9
2018-11-02T09:03:50.122Z,24
2018-11-02T09:13:49.389Z,24
2018-11-02T09:23:48.552Z,24
2018-11-02T09:33:47.776Z,24.1
2018-11-02T09:43:46.988Z,24.1
2018-11-02T09:53:46.209Z,24.1
2018-11-02T10:03:45.428Z,24.1
2018-11-02T10:13:44.647Z,24.1
2018-11-02T10:23:43.914Z,24.1
2018-11-02T10:33:43.078Z,24.1
2018-11-02T10:43:42.297Z,24.2
2018-11-02T10:53:41.522Z,24.1
2018-11-02T11:03:40.738Z,24.2
2018-11-02T11:13:40.343Z,24.2
2018-11-02T11:23:39.172Z,24.2
2018-11-02T11:33:38.395Z,24.2
2018-11-02T11:43:37.613Z,24.2
2018-11-02T11:53:36.828Z,24.2
2018-11-02T12:03:36.052Z,24.2
2018-11-02T12:13:35.271Z,24.1
2018-11-02T12:23:34.638Z,24.2
2018-11-02T12:33:33.705Z,24.2
2018-11-02T12:43:33.035Z,24.2
2018-11-02T12:53:32.140Z,24.1
2018-11-02T13:03:31.364Z,24.1
2018-11-02T13:13:30.581Z,24.1
2018-11-02T13:23:29.831Z,24.1
2018-11-02T13:33:29.014Z,24.1
2018-11-02T13:43:28.281Z,24.1
2018-11-02T13:53:27.474Z,24.1
2018-11-02T14:03:26.778Z,24.1
2018-11-02T14:13:25.891Z,24.1
2018-11-02T14:23:25.114Z,24.1
2018-11-02T14:33:24.334Z,24.1
2018-11-02T14:43:23.543Z,24
2018-11-02T14:53:22.762Z,24
2018-11-02T15:03:21.985Z,23.9
2018-11-02T15:13:21.204Z,24
2018-11-02T15:23:20.418Z,24
2018-11-02T15:33:19.691Z,24
2018-11-02T15:43:18.858Z,24
2018-11-02T15:53:18.194Z,24
2018-11-02T16:03:17.297Z,24
2018-11-02T16:13:16.514Z,24
2018-11-02T16:23:15.742Z,24.1
2018-11-02T16:33:14.963Z,24
2018-11-02T16:43:14.193Z,24.1
2018-11-02T16:53:13.397Z,24.1
2018-11-02T17:03:12.624Z,24.1
2018-11-02T17:13:11.841Z,23.9
2018-11-02T17:23:11.061Z,24.3
2018-11-02T17:33:10.285Z,24.1
2018-11-02T17:43:09.500Z,24
2018-11-02T17:53:08.781Z,24.1
2018-11-02T18:03:07.942Z,24.1
2018-11-02T18:13:07.157Z,24.1
2018-11-02T18:23:06.381Z,24.2
2018-11-02T18:33:05.599Z,24.1
2018-11-02T18:43:04.823Z,24.2
2018-11-02T18:53:04.039Z,24.1
2018-11-02T19:03:03.260Z,24.1
2018-11-02T19:13:02.499Z,24.1
2018-11-02T19:23:01.703Z,24.1
2018-11-02T19:33:00.971Z,24.1
2018-11-02T19:43:00.138Z,24.1
2018-11-02T19:52:59.364Z,24.1
2018-11-02T20:02:58.581Z,24.1
2018-11-02T20:12:57.798Z,24.2
2018-11-02T20:22:57.022Z,24.1
2018-11-02T20:32:56.239Z,24.1
2018-11-02T20:42:55.459Z,24
2018-11-02T20:52:54.684Z,23.9
2018-11-02T21:02:54.035Z,23.9
2018-11-02T21:12:53.118Z,23.9
2018-11-02T21:22:52.341Z,23.9
2018-11-02T21:32:51.560Z,23.9
2018-11-02T21:42:50.777Z,23.9
2018-11-02T21:52:50.003Z,23.9
2018-11-02T22:02:49.224Z,23.9
2018-11-02T22:12:48.436Z,23.9
2018-11-02T22:22:47.650Z,23.9
2018-11-02T22:32:46.868Z,23.9
2018-11-02T22:42:46.086Z,23.9
2018-11-02T22:52:45.315Z,23.9
2018-11-02T23:02:44.530Z,23.9
2018-11-02T23:12:43.743Z,23.9
2018-11-02T23:22:42.961Z,23.8
2018-11-02T23:32:42.184Z,23.9
2018-11-02T23:42:41.397Z,23.8
2018-11-02T23:52:40.620Z,23.8
